Time;durP1;ratioP1;P1;durP2;ratioP2;P2;SDS_P1;SDS_P2;PMS_P1;PMS_P2;Temp;Humidity;BMP_temperature;BMP_pressure;BME280_temperature;BME280_humidity;BME280_pressure;Samples;Min_cycle;Max_cycle;Signal;HPM_P1;HPM_P2
2022/05/02 00:00:07;;;;;;;19.80;14.50;;;12.30;99.90;;;;;;5022645;28;20121;-84
2022/05/02 00:02:34;;;;;;;26.33;15.35;;;12.30;99.90;;;;;;5005528;28;20026;-84
2022/05/02 00:04:59;;;;;;;23.23;15.20;;;12.40;99.90;;;;;;5031591;28;20026;-85
2022/05/02 00:07:25;;;;;;;21.35;15.25;;;12.50;99.90;;;;;;5022139;28;20026;-86
2022/05/02 00:09:51;;;;;;;20.98;14.25;;;12.50;99.90;;;;;;5038725;28;20053;-85
2022/05/02 00:12:17;;;;;;;22.45;14.77;;;12.50;99.90;;;;;;5039132;28;20017;-82
2022/05/02 00:14:43;;;;;;;22.70;14.55;;;12.50;99.90;;;;;;5037900;28;20022;-85
2022/05/02 00:17:09;;;;;;;21.25;14.75;;;12.60;99.90;;;;;;5039023;28;20044;-82
2022/05/02 00:19:35;;;;;;;22.33;13.80;;;12.60;99.90;;;;;;5022110;28;20046;-82
2022/05/02 00:22:01;;;;;;;19.27;13.50;;;12.60;99.90;;;;;;5021547;28;20065;-85
2022/05/02 00:24:27;;;;;;;20.08;14.75;;;12.60;99.90;;;;;;5021062;28;20049;-85
2022/05/02 00:26:53;;;;;;;22.33;14.02;;;12.60;99.90;;;;;;5035902;28;20036;-84
2022/05/02 00:29:19;;;;;;;19.80;13.98;;;12.60;99.90;;;;;;5040166;28;20065;-84
2022/05/02 00:31:47;;;;;;;22.98;14.25;;;12.60;99.90;;;;;;5039971;28;20010;-85
2022/05/02 00:34:13;;;;;;;21.95;14.45;;;12.70;99.90;;;;;;5039843;28;20026;-84
2022/05/02 00:36:39;;;;;;;20.63;14.27;;;12.70;99.90;;;;;;5023128;28;20021;-84
2022/05/02 00:39:05;;;;;;;22.75;13.65;;;12.60;99.90;;;;;;5039439;28;20098;-83
2022/05/02 00:41:31;;;;;;;20.67;14.02;;;12.60;99.90;;;;;;5038255;28;20038;-85
2022/05/02 00:43:57;;;;;;;22.77;13.93;;;12.60;99.90;;;;;;5037731;28;20029;-83
2022/05/02 00:46:25;;;;;;;18.38;13.60;;;12.60;99.90;;;;;;5016974;28;20022;-83
2022/05/02 00:48:55;;;;;;;21.42;13.50;;;12.60;99.90;;;;;;5029494;28;20477;-84
2022/05/02 00:51:21;;;;;;;21.83;14.88;;;12.60;99.90;;;;;;5030444;28;20036;-85
2022/05/02 00:53:49;;;;;;;23.55;14.30;;;12.50;99.90;;;;;;5032686;28;20065;-85
2022/05/02 00:56:16;;;;;;;20.85;14.68;;;12.50;99.90;;;;;;5015765;28;20022;-83
2022/05/02 00:58:42;;;;;;;22.17;14.23;;;12.50;99.90;;;;;;5010485;28;20034;-84
2022/05/02 01:01:08;;;;;;;22.15;15.10;;;12.40;99.90;;;;;;5027055;28;20036;-84
2022/05/02 01:03:35;;;;;;;20.50;14.50;;;12.40;99.90;;;;;;5005097;28;20091;-85
2022/05/02 01:08:46;;;;;;;;;;;12.40;99.90;;;;;;5022469;28;20053;-83
2022/05/02 01:11:12;;;;;;;22.80;15.20;;;12.30;99.90;;;;;;5030461;28;19906;-84
2022/05/02 01:13:45;;;;;;;23.30;16.00;;;12.30;99.90;;;;;;5013791;28;20038;-83
2022/05/02 01:16:27;;;;;;;21.75;15.23;;;12.20;99.90;;;;;;5023520;28;20080;-85
2022/05/02 01:18:57;;;;;;;24.67;17.17;;;12.10;99.90;;;;;;5021008;28;20370;-85
2022/05/02 01:21:29;;;;;;;24.50;17.27;;;12.10;99.90;;;;;;5009240;28;20026;-84
2022/05/02 01:24:01;;;;;;;25.60;17.25;;;12.00;99.90;;;;;;5038099;23;20037;-88
2022/05/02 01:26:28;;;;;;;25.50;17.02;;;12.00;99.90;;;;;;5039313;28;20026;-89
2022/05/02 01:28:59;;;;;;;27.33;18.00;;;11.90;99.90;;;;;;5022659;28;20017;-90
2022/05/02 01:31:25;;;;;;;28.02;18.08;;;11.80;99.90;;;;;;5022586;28;20029;-88
2022/05/02 01:33:52;;;;;;;26.60;18.20;;;11.80;99.90;;;;;;5022172;28;20017;-89
2022/05/02 01:36:20;;;;;;;23.75;17.45;;;11.70;99.90;;;;;;5019390;28;20018;-88
2022/05/02 01:38:46;;;;;;;28.58;18.23;;;11.70;99.90;;;;;;5021793;28;20061;-90
2022/05/02 01:41:12;;;;;;;26.92;17.92;;;11.60;99.90;;;;;;5039362;28;20014;-90
2022/05/02 01:43:39;;;;;;;24.90;17.80;;;11.50;99.90;;;;;;5022615;28;20014;-88
2022/05/02 01:46:06;;;;;;;26.38;18.30;;;11.50;99.90;;;;;;5021778;28;20021;-86
2022/05/02 01:48:32;;;;;;;26.40;17.58;;;11.40;99.90;;;;;;5015684;28;20037;-85
2022/05/02 01:50:58;;;;;;;29.95;19.02;;;11.40;99.90;;;;;;5032566;28;20018;-86
2022/05/02 01:53:25;;;;;;;28.60;19.33;;;11.40;99.90;;;;;;4999997;28;20054;-87
2022/05/02 01:55:51;;;;;;;26.05;18.45;;;11.40;99.90;;;;;;5031159;28;20569;-85
2022/05/02 01:58:17;;;;;;;28.73;19.40;;;11.30;99.90;;;;;;5034227;28;20378;-85
2022/05/02 02:00:43;;;;;;;29.33;20.52;;;11.30;99.90;;;;;;5015121;28;20038;-86
2022/05/02 02:03:09;;;;;;;30.77;19.63;;;11.30;99.90;;;;;;5031457;28;20037;-85
2022/05/02 02:05:48;;;;;;;28.00;20.38;;;11.20;99.90;;;;;;5012366;28;20145;-87
2022/05/02 02:08:28;;;;;;;29.83;20.92;;;11.20;99.90;;;;;;5015810;28;20022;-87
2022/05/02 02:11:00;;;;;;;33.60;20.98;;;11.20;99.90;;;;;;5037275;28;20130;-87
2022/05/02 02:13:26;;;;;;;33.80;21.88;;;11.10;99.90;;;;;;5020708;28;20033;-89
2022/05/02 02:15:52;;;;;;;30.40;20.88;;;11.10;99.90;;;;;;5031955;28;20030;-85
2022/05/02 02:18:18;;;;;;;31.35;21.55;;;11.10;99.90;;;;;;5036525;28;20060;-88
2022/05/02 02:20:47;;;;;;;31.48;20.77;;;11.00;99.90;;;;;;5021100;28;20010;-89
2022/05/02 02:23:14;;;;;;;35.03;23.17;;;11.00;99.90;;;;;;5037966;28;20022;-90
2022/05/02 02:25:41;;;;;;;33.70;21.65;;;11.00;99.90;;;;;;5021032;28;20085;-88
2022/05/02 02:28:07;;;;;;;31.65;22.08;;;11.00;99.90;;;;;;5039299;28;20033;-89
2022/05/02 02:30:33;;;;;;;32.88;22.40;;;11.00;99.90;;;;;;5024875;28;20040;-90
2022/05/02 02:33:00;;;;;;;38.78;24.25;;;10.90;99.90;;;;;;5024853;28;20034;-87
2022/05/02 02:35:27;;;;;;;41.30;24.80;;;10.90;99.90;;;;;;5024742;28;20077;-86
2022/05/02 02:37:53;;;;;;;38.60;24.52;;;10.90;99.90;;;;;;5008019;28;20052;-89
2022/05/02 02:40:19;;;;;;;39.17;24.33;;;10.90;99.90;;;;;;5004735;28;20093;-86
2022/05/02 02:42:46;;;;;;;38.83;24.90;;;10.90;99.90;;;;;;5019692;28;20045;-87
2022/05/02 02:45:12;;;;;;;35.28;23.65;;;10.80;99.90;;;;;;5009837;28;20044;-87
2022/05/02 02:47:38;;;;;;;35.85;24.45;;;10.80;99.90;;;;;;5003745;28;20041;-86
2022/05/02 02:50:05;;;;;;;34.70;22.85;;;10.90;99.90;;;;;;5020119;28;20029;-86
2022/05/02 02:52:31;;;;;;;34.22;23.02;;;10.80;99.90;;;;;;5029781;28;20033;-87
2022/05/02 02:54:56;;;;;;;37.38;24.45;;;10.80;99.90;;;;;;5029786;28;20052;-85
2022/05/02 02:57:22;;;;;;;35.97;24.05;;;10.80;99.90;;;;;;5032412;28;20052;-85
2022/05/02 02:59:48;;;;;;;35.22;24.73;;;10.70;99.90;;;;;;5038192;28;20029;-86
2022/05/02 03:02:14;;;;;;;39.08;25.20;;;10.70;99.90;;;;;;5016825;28;20034;-87
2022/05/02 03:07:27;;;;;;;36.65;24.70;;;10.70;99.90;;;;;;5029314;28;20044;-86
2022/05/02 03:09:53;;;;;;;36.38;23.77;;;10.60;99.90;;;;;;5029387;28;20104;-85
2022/05/02 03:12:20;;;;;;;37.38;23.70;;;10.60;99.90;;;;;;5015039;28;20035;-89
2022/05/02 03:14:46;;;;;;;36.90;24.77;;;10.60;99.90;;;;;;4998709;28;20026;-85
2022/05/02 03:17:12;;;;;;;40.83;24.98;;;10.60;99.90;;;;;;5031722;28;20036;-85
2022/05/02 03:19:39;;;;;;;36.92;25.13;;;10.60;99.90;;;;;;5013669;28;20021;-88
2022/05/02 03:22:05;;;;;;;33.70;22.80;;;10.60;99.90;;;;;;5014048;28;20030;-86
2022/05/02 03:24:31;;;;;;;38.80;24.45;;;10.60;99.90;;;;;;5032147;28;20037;-87
2022/05/02 03:26:57;;;;;;;36.13;23.60;;;10.60;99.90;;;;;;5014023;28;20101;-86
2022/05/02 03:29:23;;;;;;;37.97;24.63;;;10.60;99.90;;;;;;5013380;28;20065;-86
2022/05/02 03:31:49;;;;;;;36.47;24.45;;;10.60;99.90;;;;;;5014536;28;20038;-84
2022/05/02 03:34:18;;;;;;;38.45;25.38;;;10.60;99.90;;;;;;5034144;28;20033;-87
2022/05/02 03:36:44;;;;;;;37.17;24.08;;;10.70;99.90;;;;;;5001025;28;20072;-84
2022/05/02 03:39:10;;;;;;;41.15;25.52;;;10.70;99.90;;;;;;5034168;28;20033;-82
2022/05/02 03:41:36;;;;;;;37.22;24.17;;;10.70;99.90;;;;;;5032067;28;20096;-84
2022/05/02 03:44:01;;;;;;;43.00;25.45;;;10.70;99.90;;;;;;5007585;28;20048;-84
2022/05/02 03:46:27;;;;;;;38.05;25.67;;;10.70;99.90;;;;;;5025487;28;20022;-84
2022/05/02 03:48:54;;;;;;;40.72;26.45;;;10.60;99.90;;;;;;5026657;28;20077;-83
2022/05/02 03:51:20;;;;;;;43.30;26.45;;;10.70;99.90;;;;;;5029143;28;20037;-85
2022/05/02 03:53:46;;;;;;;39.25;26.30;;;10.60;99.90;;;;;;5013367;28;20025;-83
2022/05/02 03:56:12;;;;;;;44.45;26.40;;;10.60;99.90;;;;;;5031435;28;20038;-84
2022/05/02 03:58:38;;;;;;;39.10;25.52;;;10.60;99.90;;;;;;5016919;28;20021;-84
2022/05/02 04:01:04;;;;;;;40.92;26.30;;;10.60;99.90;;;;;;5031148;28;20130;-86
2022/05/02 04:03:30;;;;;;;42.72;27.65;;;10.60;99.90;;;;;;5009226;28;20477;-85
2022/05/02 04:05:56;;;;;;;38.75;26.50;;;10.60;99.90;;;;;;4994591;28;20080;-86
2022/05/02 04:08:21;;;;;;;42.78;26.50;;;10.60;99.90;;;;;;5001683;28;20505;-85
2022/05/02 04:10:47;;;;;;;42.35;27.25;;;10.60;99.90;;;;;;5002594;28;20030;-86
2022/05/02 04:13:13;;;;;;;39.42;26.13;;;10.60;99.90;;;;;;5002147;28;20026;-86
2022/05/02 04:15:39;;;;;;;43.85;27.33;;;10.60;99.90;;;;;;5002224;28;20030;-86
2022/05/02 04:18:05;;;;;;;43.00;26.80;;;10.60;99.90;;;;;;5003048;28;20251;-85
2022/05/02 04:20:31;;;;;;;36.47;25.02;;;10.70;99.90;;;;;;5006193;28;20073;-85
2022/05/02 04:22:58;;;;;;;41.28;25.20;;;10.70;99.90;;;;;;4970654;28;20022;-85
2022/05/02 04:25:23;;;;;;;40.83;26.38;;;10.70;99.90;;;;;;5002206;28;20033;-87
2022/05/02 04:27:49;;;;;;;45.25;27.23;;;10.70;99.90;;;;;;4992110;28;20026;-84
2022/05/02 04:30:15;;;;;;;39.13;26.55;;;10.70;99.90;;;;;;4990338;28;20048;-84
2022/05/02 04:32:40;;;;;;;46.40;26.48;;;10.80;99.90;;;;;;4988822;28;20030;-85
2022/05/02 04:35:07;;;;;;;43.17;27.63;;;10.80;99.90;;;;;;4985241;28;20041;-86
2022/05/02 04:37:32;;;;;;;44.83;26.38;;;10.80;99.90;;;;;;5004387;28;20058;-85
2022/05/02 04:39:58;;;;;;;41.00;25.98;;;10.80;99.90;;;;;;5011662;28;20021;-86
2022/05/02 04:42:24;;;;;;;39.70;25.70;;;10.90;99.90;;;;;;4994970;28;20034;-84
2022/05/02 04:44:50;;;;;;;40.33;25.85;;;10.90;99.90;;;;;;5013475;28;20033;-85
2022/05/02 04:47:16;;;;;;;43.97;26.52;;;10.90;99.90;;;;;;5015287;28;20049;-85
2022/05/02 04:49:42;;;;;;;49.00;25.85;;;11.00;99.90;;;;;;5014987;28;20050;-86
2022/05/02 04:52:08;;;;;;;39.35;24.90;;;10.90;99.90;;;;;;5017590;28;20026;-84
2022/05/02 04:54:34;;;;;;;37.58;24.25;;;11.00;99.90;;;;;;5001749;28;20026;-83
2022/05/02 04:57:01;;;;;;;33.47;22.80;;;11.00;99.90;;;;;;5002507;28;20069;-86
2022/05/02 04:59:26;;;;;;;36.10;23.80;;;11.00;99.90;;;;;;5012962;28;20037;-88
2022/05/02 05:01:52;;;;;;;33.08;22.67;;;11.10;99.90;;;;;;5005631;28;20348;-86
2022/05/02 05:04:18;;;;;;;43.90;25.13;;;11.10;99.90;;;;;;5004398;28;20027;-85
2022/05/02 05:06:44;;;;;;;40.63;24.48;;;11.10;99.90;;;;;;5004958;28;20042;-87
2022/05/02 05:09:10;;;;;;;37.47;24.63;;;11.20;99.90;;;;;;5004296;28;20057;-86
2022/05/02 05:11:44;;;;;;;39.53;24.58;;;11.10;99.90;;;;;;4988425;28;20041;-86
2022/05/02 05:17:32;;;;;;;;;;;11.30;99.90;;;;;;5001169;28;20085;-88
2022/05/02 05:20:22;;;;;;;31.38;21.60;;;11.50;99.90;;;;;;5009163;28;19901;-85
2022/05/02 05:23:07;;;;;;;33.25;22.42;;;11.70;99.90;;;;;;5027287;28;20034;-85
2022/05/02 05:25:42;;;;;;;36.20;21.47;;;12.10;99.90;;;;;;5021069;28;20112;-86
2022/05/02 05:28:27;;;;;;;31.08;20.65;;;12.40;99.90;;;;;;5007494;28;20026;-86
2022/05/02 05:31:00;;;;;;;;;;;12.50;99.90;;;;;;4991273;28;20030;-86
2022/05/02 05:33:46;;;;;;;31.45;21.10;;;12.60;99.90;;;;;;5010035;28;19921;-86
2022/05/02 05:36:30;;;;;;;28.92;20.48;;;12.70;99.90;;;;;;5010839;28;20030;-87
2022/05/02 05:39:07;;;;;;;34.55;20.30;;;12.70;99.90;;;;;;4989463;28;20057;-87
2022/05/02 05:41:42;;;;;;;32.88;19.45;;;12.70;99.90;;;;;;4991931;28;20034;-88
2022/05/02 05:44:19;;;;;;;32.35;22.17;;;12.80;99.90;;;;;;4991306;28;20019;-86
2022/05/02 05:47:20;;;;;;;30.15;20.60;;;12.90;99.90;;;;;;5005926;28;20030;-88
2022/05/02 05:49:49;;;;;;;37.50;23.25;;;13.10;99.90;;;;;;5002571;28;20034;-85
2022/05/02 05:52:47;;;;;;;28.35;20.30;;;13.20;99.90;;;;;;5004791;28;20037;-85
2022/05/02 05:55:26;;;;;;;28.40;20.00;;;13.50;99.90;;;;;;4991942;28;20026;-86
2022/05/02 05:58:13;;;;;;;30.38;18.73;;;13.70;99.90;;;;;;5000323;28;20089;-83
2022/05/02 06:00:44;;;;;;;32.88;20.10;;;13.90;99.90;;;;;;5002509;28;20078;-85
2022/05/02 06:03:15;;;;;;;28.08;19.00;;;14.00;99.90;;;;;;5028345;28;20038;-84
2022/05/02 06:05:46;;;;;;;33.40;19.83;;;14.10;99.90;;;;;;5025158;28;20014;-84
2022/05/02 06:08:18;;;;;;;29.80;18.80;;;14.30;99.90;;;;;;5026250;28;20034;-83
2022/05/02 06:10:46;;;;;;;25.38;18.35;;;14.40;99.90;;;;;;5033083;28;20129;-83
2022/05/02 06:13:16;;;;;;;23.98;17.67;;;14.70;99.90;;;;;;4995211;28;20021;-83
2022/05/02 06:18:35;;;;;;;28.48;18.63;;;15.00;99.90;;;;;;5032335;28;20053;-81
2022/05/02 06:21:04;;;;;;;27.35;17.80;;;15.20;99.90;;;;;;5019640;28;20018;-81
2022/05/02 06:23:40;;;;;;;27.05;17.23;;;15.40;99.90;;;;;;5016598;28;20174;-82
2022/05/02 06:26:07;;;;;;;24.35;16.17;;;15.50;99.90;;;;;;4999143;28;20031;-84
2022/05/02 06:28:44;;;;;;;23.63;17.38;;;15.60;99.90;;;;;;5014304;28;20097;-83
2022/05/02 06:31:23;;;;;;;23.92;17.17;;;15.70;99.90;;;;;;5014050;28;20034;-85
2022/05/02 06:33:50;;;;;;;23.77;16.30;;;15.70;99.90;;;;;;5009717;28;20031;-84
2022/05/02 06:36:34;;;;;;;24.23;16.90;;;15.90;99.90;;;;;;5009171;28;20026;-85
2022/05/02 06:39:19;;;;;;;22.45;16.42;;;15.90;99.90;;;;;;5005784;28;20030;-84
2022/05/02 06:42:12;;;;;;;26.02;16.38;;;16.00;99.90;;;;;;4990016;28;20033;-84
2022/05/02 06:45:06;;;;;;;25.05;16.08;;;16.00;99.90;;;;;;5015326;28;20072;-82
2022/05/02 06:47:49;;;;;;;22.48;15.85;;;16.10;99.90;;;;;;5020841;28;20022;-82
2022/05/02 06:50:18;;;;;;;23.80;15.63;;;16.10;99.90;;;;;;5017975;28;20090;-84
2022/05/02 06:53:02;;;;;;;21.55;15.32;;;16.10;99.90;;;;;;5017714;28;20092;-83
2022/05/02 06:55:43;;;;;;;21.83;15.70;;;16.30;99.90;;;;;;5034923;28;20081;-84
2022/05/02 06:58:33;;;;;;;24.23;14.52;;;16.30;99.90;;;;;;5001147;28;20026;-83
2022/05/02 07:01:08;;;;;;;25.02;14.20;;;16.40;99.90;;;;;;5019505;28;20029;-82
2022/05/02 07:03:57;;;;;;;21.75;14.90;;;16.40;99.90;;;;;;5019976;28;20030;-81
2022/05/02 07:06:51;;;;;;;16.77;13.23;;;16.40;99.90;;;;;;5001319;28;20053;-83
2022/05/02 07:09:23;;;;;;;19.08;14.60;;;16.50;99.90;;;;;;5023511;28;20091;-85
2022/05/02 07:12:04;;;;;;;20.33;13.23;;;16.70;99.90;;;;;;5023212;28;20026;-83
2022/05/02 07:14:54;;;;;;;17.92;12.57;;;16.70;99.90;;;;;;5024769;28;20038;-84
2022/05/02 07:17:35;;;;;;;21.65;13.20;;;16.90;99.90;;;;;;5036146;28;20493;-83
2022/05/02 07:20:06;;;;;;;19.52;13.00;;;17.00;99.90;;;;;;5035980;28;20033;-86
2022/05/02 07:22:39;;;;;;;20.33;12.20;;;17.20;99.90;;;;;;5035597;28;20077;-82
2022/05/02 07:25:13;;;;;;;19.63;12.13;;;17.50;99.90;;;;;;5083609;22;20095;-89
2022/05/02 07:27:42;;;;;;;19.15;12.18;;;17.50;99.90;;;;;;5052892;28;20032;-86
2022/05/02 07:30:09;;;;;;;18.90;11.95;;;17.60;99.90;;;;;;5075432;28;20029;-86
2022/05/02 07:32:35;;;;;;;18.10;12.52;;;17.60;99.90;;;;;;5076927;28;20029;-83
2022/05/02 07:35:01;;;;;;;21.13;12.30;;;17.80;99.90;;;;;;5059100;28;20025;-87
2022/05/02 07:37:31;;;;;;;18.27;12.35;;;17.90;99.90;;;;;;5069465;28;20081;-86
2022/05/02 07:39:58;;;;;;;20.52;12.63;;;18.00;99.90;;;;;;5064234;28;20044;-86
2022/05/02 07:42:27;;;;;;;17.85;12.13;;;18.10;99.90;;;;;;5063831;28;20368;-85
2022/05/02 07:44:58;;;;;;;16.75;12.20;;;17.90;99.90;;;;;;5046542;28;20041;-87
2022/05/02 07:47:27;;;;;;;16.83;10.98;;;18.20;99.90;;;;;;5046640;28;20538;-87
2022/05/02 07:49:56;;;;;;;17.10;11.23;;;18.40;99.90;;;;;;5045669;28;20033;-86
2022/05/02 07:52:28;;;;;;;15.13;11.10;;;18.60;99.90;;;;;;5062602;28;20021;-86
2022/05/02 07:54:58;;;;;;;20.65;13.18;;;18.70;99.90;;;;;;5058008;28;20033;-81
2022/05/02 07:57:27;;;;;;;17.58;11.50;;;18.80;99.90;;;;;;5079225;28;20017;-83
2022/05/02 07:59:59;;;;;;;20.02;11.85;;;18.90;99.90;;;;;;5078864;28;20025;-85
2022/05/02 08:02:26;;;;;;;18.63;11.70;;;18.90;99.90;;;;;;5061813;28;20033;-83
2022/05/02 08:04:57;;;;;;;16.05;11.07;;;18.90;99.90;;;;;;5053990;28;20048;-84
2022/05/02 08:07:37;;;;;;;14.55;10.30;;;19.00;99.90;;;;;;5069770;28;20029;-84
2022/05/02 08:10:22;;;;;;;14.68;10.60;;;19.10;99.90;;;;;;5070278;28;20025;-82
2022/05/02 08:12:54;;;;;;;13.07;9.90;;;18.90;99.90;;;;;;5066345;28;20044;-85
2022/05/02 08:15:25;;;;;;;16.90;10.90;;;18.90;99.90;;;;;;5047163;28;20052;-86
2022/05/02 08:18:16;;;;;;;12.93;10.38;;;19.00;99.90;;;;;;5047948;28;20044;-84
2022/05/02 08:20:49;;;;;;;19.30;11.02;;;19.00;99.90;;;;;;5048719;28;20029;-86
2022/05/02 08:29:47;;;;;;;14.13;10.05;;;19.00;99.80;;;;;;5041949;28;20033;-80
2022/05/02 08:32:41;;;;;;;19.30;10.50;;;19.00;99.70;;;;;;5041380;28;20101;-79
2022/05/02 08:35:08;;;;;;;14.52;9.50;;;19.20;99.20;;;;;;5041120;28;20097;-82
2022/05/02 08:37:57;;;;;;;14.43;8.55;;;19.40;98.70;;;;;;5039043;28;20026;-83
2022/05/02 08:40:25;;;;;;;13.25;8.98;;;19.50;98.20;;;;;;5036639;28;20057;-84
2022/05/02 08:43:19;;;;;;;16.80;10.10;;;19.30;97.60;;;;;;5054892;28;20040;-83
2022/05/02 08:45:52;;;;;;;13.57;9.25;;;19.10;98.10;;;;;;5037679;28;20032;-83
2022/05/02 08:49:32;;;;;;;12.43;9.38;;;19.30;98.50;;;;;;5052199;28;20033;-84
2022/05/02 08:51:48;;;;;;;15.25;8.73;;;19.50;98.40;;;;;;5034208;28;20049;-83
2022/05/02 08:54:38;;;;;;;15.18;8.30;;;19.60;98.20;;;;;;5042752;28;20090;-84
2022/05/02 08:57:23;;;;;;;12.70;7.85;;;19.70;98.10;;;;;;5041445;28;20429;-85
2022/05/02 08:59:56;;;;;;;9.75;7.55;;;19.80;98.10;;;;;;5050777;28;20025;-83
2022/05/02 09:02:34;;;;;;;12.40;7.72;;;19.90;97.30;;;;;;5063097;28;20025;-84
2022/05/02 09:05:19;;;;;;;10.20;8.23;;;20.00;97.30;;;;;;5063215;28;20039;-84
2022/05/02 09:07:55;;;;;;;;;;;20.20;97.00;;;;;;5063390;28;20025;-85
2022/05/02 09:10:28;;;;;;;16.10;8.82;;;20.40;96.30;;;;;;5050074;28;19925;-83
2022/05/02 09:13:23;;;;;;;13.07;7.80;;;20.30;96.20;;;;;;5070346;28;20044;-84
2022/05/02 09:16:11;;;;;;;9.50;7.50;;;20.50;95.60;;;;;;5060419;28;20403;-84
2022/05/02 09:18:56;;;;;;;11.00;7.25;;;20.80;94.90;;;;;;5043247;28;20028;-86
2022/05/02 09:21:41;;;;;;;14.50;7.55;;;20.70;95.20;;;;;;5059986;28;20017;-85
2022/05/02 09:24:36;;;;;;;12.43;7.45;;;20.90;95.00;;;;;;5060080;28;20025;-85
2022/05/02 09:27:13;;;;;;;;;;;21.30;94.00;;;;;;5059842;28;20032;-86
2022/05/02 09:29:58;;;;;;;9.82;6.97;;;21.70;93.80;;;;;;5060239;28;20368;-84
2022/05/02 09:32:36;;;;;;;12.35;7.13;;;21.90;93.40;;;;;;5060783;28;20667;-84
2022/05/02 09:35:04;;;;;;;7.53;5.72;;;22.50;92.90;;;;;;5042313;28;20056;-85
2022/05/02 09:37:39;;;;;;;9.55;6.40;;;23.50;91.70;;;;;;5024394;28;20080;-85
2022/05/02 09:40:12;;;;;;;9.48;6.47;;;24.60;90.10;;;;;;5049813;28;20030;-85
2022/05/02 09:42:45;;;;;;;8.45;6.68;;;25.80;86.60;;;;;;5026319;28;20484;-83
2022/05/02 09:51:03;;;;;;;8.82;6.03;;;28.20;74.50;;;;;;5061235;28;20052;-85
2022/05/02 09:54:02;;;;;;;8.65;6.05;;;29.30;71.40;;;;;;5060919;28;20021;-84
2022/05/02 09:56:40;;;;;;;8.02;5.35;;;30.10;67.50;;;;;;5039612;28;20055;-84
2022/05/02 09:59:23;;;;;;;7.85;4.70;;;31.50;64.90;;;;;;5048391;28;20041;-82
2022/05/02 10:01:59;;;;;;;7.53;5.53;;;32.10;62.40;;;;;;5049103;28;20060;-85
2022/05/02 10:04:42;;;;;;;7.68;5.47;;;32.90;59.40;;;;;;5068146;28;20503;-84
2022/05/02 10:07:10;;;;;;;7.07;5.00;;;33.60;57.70;;;;;;5066009;28;20028;-85
2022/05/02 10:09:46;;;;;;;8.82;5.22;;;34.40;56.00;;;;;;5064816;28;20032;-85
2022/05/02 10:12:32;;;;;;;9.57;5.15;;;35.40;54.00;;;;;;5065115;28;20025;-85
2022/05/02 10:15:09;;;;;;;7.70;4.85;;;36.00;52.60;;;;;;5052029;28;20048;-83
2022/05/02 10:18:01;;;;;;;7.90;5.30;;;36.70;51.40;;;;;;5066969;28;20029;-84
2022/05/02 10:20:55;;;;;;;7.57;5.43;;;36.80;49.90;;;;;;5068796;28;20029;-85
2022/05/02 10:23:42;;;;;;;9.15;5.18;;;35.90;48.60;;;;;;5064678;28;20126;-84
2022/05/02 10:26:27;;;;;;;7.80;4.82;;;35.80;48.80;;;;;;5033841;28;20063;-85
2022/05/02 10:29:23;;;;;;;7.32;5.15;;;36.10;48.90;;;;;;5064472;28;20131;-86
2022/05/02 10:32:27;;;;;;;8.68;4.97;;;36.20;48.30;;;;;;5064283;28;20021;-88
2022/05/02 10:34:58;;;;;;;8.07;4.80;;;36.40;46.70;;;;;;5041377;28;20039;-84
2022/05/02 10:37:28;;;;;;;8.60;4.55;;;34.60;47.30;;;;;;5062755;28;20028;-85
2022/05/02 10:40:03;;;;;;;8.45;4.85;;;33.80;48.10;;;;;;5066923;28;20093;-85
2022/05/02 10:42:32;;;;;;;4.72;3.72;;;34.40;48.60;;;;;;5071219;28;20048;-86
2022/05/02 10:45:07;;;;;;;6.85;3.78;;;35.00;47.90;;;;;;5046094;28;20094;-84
2022/05/02 10:47:47;;;;;;;5.40;3.40;;;35.70;46.70;;;;;;5029600;28;20037;-84
2022/05/02 10:50:18;;;;;;;7.10;4.10;;;36.80;46.40;;;;;;5050922;28;20026;-82
2022/05/02 10:52:47;;;;;;;6.20;4.13;;;37.20;45.90;;;;;;5042528;28;20021;-83
2022/05/02 10:55:27;;;;;;;6.40;3.83;;;37.30;45.70;;;;;;5062733;28;20044;-85
2022/05/02 10:58:02;;;;;;;5.20;3.80;;;37.00;45.40;;;;;;5048654;28;20037;-87
2022/05/02 11:00:28;;;;;;;5.38;3.40;;;36.90;45.40;;;;;;5048001;28;20036;-85
2022/05/02 11:03:21;;;;;;;6.03;4.07;;;36.90;45.10;;;;;;5065992;28;20021;-83
2022/05/02 11:06:03;;;;;;;9.27;3.40;;;37.90;44.40;;;;;;5066317;28;20519;-85
2022/05/02 11:08:29;;;;;;;7.47;3.70;;;38.10;43.90;;;;;;5047431;28;20039;-86
2022/05/02 11:11:05;;;;;;;5.63;3.50;;;37.30;43.90;;;;;;5065528;28;20056;-85
2022/05/02 11:13:55;;;;;;;5.95;4.18;;;37.20;44.30;;;;;;5065785;28;20493;-85
2022/05/02 11:16:26;;;;;;;7.00;3.70;;;36.50;44.20;;;;;;5046856;28;20029;-83
2022/05/02 11:21:53;;;;;;;11.07;7.38;;;34.60;45.30;;;;;;5063796;28;20029;-85
2022/05/02 11:24:52;;;;;;;6.30;3.30;;;34.50;45.90;;;;;;5063717;28;20025;-83
2022/05/02 11:28:06;;;;;;;6.50;3.33;;;34.70;45.30;;;;;;5066124;28;20021;-86
2022/05/02 11:30:45;;;;;;;5.57;3.72;;;35.00;43.30;;;;;;5047497;28;20115;-86
2022/05/02 11:33:36;;;;;;;5.70;2.80;;;33.70;44.80;;;;;;5046809;28;20032;-83
2022/05/02 11:36:06;;;;;;;6.82;3.25;;;34.50;44.70;;;;;;5044523;28;20065;-86
2022/05/02 11:39:03;;;;;;;5.70;3.13;;;34.80;45.00;;;;;;5066480;28;20037;-85
2022/05/02 11:41:31;;;;;;;4.32;3.38;;;34.90;44.20;;;;;;5071084;28;20013;-83
2022/05/02 11:44:11;;;;;;;3.95;3.10;;;35.10;44.90;;;;;;5068081;28;20068;-86
2022/05/02 11:47:01;;;;;;;7.05;2.80;;;34.90;43.80;;;;;;5065548;28;20146;-86
2022/05/02 11:49:57;;;;;;;7.38;3.13;;;33.90;43.00;;;;;;5063127;28;20029;-84
2022/05/02 11:52:35;;;;;;;3.60;2.80;;;33.70;44.80;;;;;;5053526;28;20254;-86
2022/05/02 11:55:06;;;;;;;8.98;3.70;;;33.60;44.90;;;;;;5063297;28;20031;-84
2022/05/02 11:57:49;;;;;;;8.18;3.88;;;33.40;45.00;;;;;;5044246;28;20025;-87
2022/05/02 12:00:17;;;;;;;9.10;3.33;;;33.90;45.70;;;;;;5063556;28;20061;-85
2022/05/02 12:02:48;;;;;;;8.02;3.40;;;34.00;45.10;;;;;;5050042;28;20011;-84
2022/05/02 12:05:31;;;;;;;5.72;3.70;;;34.20;44.90;;;;;;5078403;28;20041;-83
2022/05/02 12:08:01;;;;;;;6.47;3.17;;;33.90;45.10;;;;;;5078526;28;20049;-84
2022/05/02 12:10:43;;;;;;;13.20;3.92;;;34.00;45.50;;;;;;5078592;28;20054;-84
2022/05/02 12:13:12;;;;;;;6.00;3.58;;;34.60;45.00;;;;;;5052961;28;20128;-86
2022/05/02 12:16:13;;;;;;;6.22;3.75;;;35.10;44.40;;;;;;5069924;28;20028;-85
2022/05/02 12:18:39;;;;;;;4.95;3.13;;;34.30;45.20;;;;;;4989435;28;20102;-86
2022/05/02 12:21:07;;;;;;;7.57;3.67;;;33.60;45.00;;;;;;5038059;28;20012;-85
2022/05/02 12:23:36;;;;;;;5.93;4.65;;;32.60;45.30;;;;;;5069046;28;20021;-85
2022/05/02 12:26:03;;;;;;;5.53;3.53;;;31.90;45.80;;;;;;5068770;28;20694;-87
2022/05/02 12:28:51;;;;;;;5.78;3.95;;;31.20;46.20;;;;;;5058164;28;20040;-82
2022/05/02 12:31:34;;;;;;;6.97;4.22;;;31.10;47.00;;;;;;5077302;28;20033;-84
2022/05/02 12:34:02;;;;;;;12.90;3.80;;;31.80;46.40;;;;;;5071268;28;20060;-83
2022/05/02 12:36:49;;;;;;;7.40;4.43;;;32.60;46.40;;;;;;5064716;28;20013;-86
2022/05/02 12:39:26;;;;;;;5.53;3.50;;;32.80;45.70;;;;;;5048812;28;20033;-86
2022/05/02 12:42:12;;;;;;;3.85;3.30;;;33.30;45.20;;;;;;5026552;28;20025;-85
2022/05/02 12:44:46;;;;;;;5.03;3.53;;;34.00;45.10;;;;;;5072483;28;20071;-86
2022/05/02 12:47:21;;;;;;;6.30;3.22;;;34.10;44.70;;;;;;5031418;28;20044;-85
2022/05/02 12:50:05;;;;;;;4.93;3.30;;;34.10;45.10;;;;;;5066575;28;20016;-84
2022/05/02 12:52:33;;;;;;;7.30;3.63;;;34.30;44.50;;;;;;5079281;28;20020;-83
2022/05/02 12:54:59;;;;;;;5.18;3.53;;;34.10;44.80;;;;;;5078178;28;20009;-82
2022/05/02 13:00:31;;;;;;;8.02;3.60;;;33.90;44.70;;;;;;5083293;28;20041;-82
2022/05/02 13:03:02;;;;;;;5.95;3.80;;;34.10;44.70;;;;;;5070982;28;20025;-82
2022/05/02 13:05:32;;;;;;;5.65;3.35;;;34.20;44.40;;;;;;5052525;28;20084;-87
2022/05/02 13:08:12;;;;;;;5.50;3.55;;;34.10;43.90;;;;;;5074017;28;20040;-82
2022/05/02 13:10:39;;;;;;;6.38;3.05;;;32.20;43.40;;;;;;5068145;28;20090;-86
2022/05/02 13:13:14;;;;;;;6.88;3.42;;;31.40;43.90;;;;;;5055935;28;20009;-83
2022/05/02 13:15:51;;;;;;;5.55;3.17;;;31.60;44.90;;;;;;5056570;28;20032;-86
2022/05/02 13:18:18;;;;;;;4.07;2.80;;;32.20;44.70;;;;;;5055626;28;20048;-84
2022/05/02 13:21:18;;;;;;;3.75;2.33;;;32.80;44.30;;;;;;5070235;28;20027;-86
2022/05/02 13:23:55;;;;;;;5.63;3.45;;;33.10;43.80;;;;;;5027930;28;20047;-83
2022/05/02 13:26:37;;;;;;;5.47;3.50;;;33.00;44.20;;;;;;5072173;28;20059;-82
2022/05/02 13:29:31;;;;;;;4.78;3.35;;;32.90;44.60;;;;;;5068537;28;20087;-84
2022/05/02 13:32:02;;;;;;;5.28;2.85;;;32.50;44.40;;;;;;5052231;28;20025;-85
2022/05/02 13:34:29;;;;;;;4.25;2.83;;;32.70;44.70;;;;;;5070552;28;20033;-86
2022/05/02 13:37:16;;;;;;;5.55;3.15;;;31.80;44.90;;;;;;5070084;28;20024;-86